Time;durP1;ratioP1;P1;durP2;ratioP2;P2;SDS_P1;SDS_P2;PMS_P1;PMS_P2;Temp;Humidity;BMP_temperature;BMP_pressure;BME280_temperature;BME280_humidity;BME280_pressure;Samples;Min_cycle;Max_cycle;Signal;HPM_P1;HPM_P2
2023/12/26 00:00:48;;;;;;;3.78;1.30;;;9.60;99.90;;;;;;5050694;28;20495;-62
2023/12/26 00:03:13;;;;;;;3.70;1.15;;;9.70;99.90;;;;;;5015990;28;20062;-62
2023/12/26 00:05:40;;;;;;;4.70;1.23;;;9.70;99.90;;;;;;5030560;28;20037;-62
2023/12/26 00:08:07;;;;;;;4.38;1.27;;;9.70;99.90;;;;;;5030213;28;20038;-62
2023/12/26 00:10:33;;;;;;;4.97;1.58;;;9.70;99.90;;;;;;5014445;28;20057;-62
2023/12/26 00:13:02;;;;;;;6.05;2.70;;;9.70;99.90;;;;;;5014171;28;20111;-62
2023/12/26 00:15:28;;;;;;;7.65;2.03;;;9.70;99.90;;;;;;5013481;28;20049;-61
2023/12/26 00:17:54;;;;;;;7.15;1.38;;;9.70;99.90;;;;;;5013891;28;20037;-62
2023/12/26 00:20:19;;;;;;;5.10;1.42;;;9.80;99.90;;;;;;5013638;28;20045;-62
2023/12/26 00:22:45;;;;;;;3.75;1.55;;;9.80;99.90;;;;;;5032060;28;20067;-62
2023/12/26 00:25:11;;;;;;;6.18;1.30;;;9.80;99.90;;;;;;5033505;28;20037;-62
2023/12/26 00:27:39;;;;;;;4.32;1.40;;;9.80;99.90;;;;;;5017291;28;20390;-62
2023/12/26 00:30:07;;;;;;;6.65;1.63;;;9.90;99.90;;;;;;5017278;28;20046;-61
2023/12/26 00:32:34;;;;;;;8.90;1.80;;;9.80;99.90;;;;;;5017507;28;20041;-62
2023/12/26 00:34:59;;;;;;;9.55;2.15;;;9.90;99.90;;;;;;5017931;28;20387;-62
2023/12/26 00:37:25;;;;;;;5.93;1.52;;;9.80;99.90;;;;;;5016889;28;20037;-62
2023/12/26 00:39:52;;;;;;;9.13;2.17;;;9.90;99.90;;;;;;5017211;28;20068;-62
2023/12/26 00:42:18;;;;;;;5.50;1.60;;;9.90;99.90;;;;;;5033407;28;20041;-62
2023/12/26 00:44:44;;;;;;;8.60;1.65;;;9.80;99.90;;;;;;5036588;28;20056;-62
2023/12/26 00:47:10;;;;;;;7.03;2.30;;;9.90;99.90;;;;;;5037093;28;20044;-62
2023/12/26 00:49:35;;;;;;;9.73;2.15;;;9.80;99.90;;;;;;5029618;28;20562;-62
2023/12/26 00:52:01;;;;;;;7.22;1.90;;;9.80;99.90;;;;;;5033734;28;20041;-62
2023/12/26 00:54:27;;;;;;;10.18;2.20;;;9.80;99.90;;;;;;5040339;28;20673;-62
2023/12/26 00:56:53;;;;;;;6.82;2.25;;;9.80;99.90;;;;;;5036805;28;20112;-62
2023/12/26 00:59:19;;;;;;;10.65;2.20;;;9.70;99.90;;;;;;5036284;28;20098;-61
2023/12/26 01:01:44;;;;;;;9.73;2.75;;;9.80;99.90;;;;;;5022760;28;20045;-62
2023/12/26 01:04:10;;;;;;;6.97;1.73;;;9.70;99.90;;;;;;5016792;28;20050;-61
2023/12/26 01:06:36;;;;;;;9.85;3.17;;;9.70;99.90;;;;;;5032981;28;20049;-61
2023/12/26 01:09:01;;;;;;;7.97;2.40;;;9.70;99.90;;;;;;5033434;28;20120;-61
2023/12/26 01:11:27;;;;;;;10.18;3.00;;;9.70;99.90;;;;;;5024952;28;20103;-61
2023/12/26 01:13:53;;;;;;;8.77;1.88;;;9.70;99.90;;;;;;5036484;28;20106;-61
2023/12/26 01:16:19;;;;;;;12.07;2.70;;;9.70;99.90;;;;;;5036625;28;20113;-61
2023/12/26 01:18:45;;;;;;;10.82;2.65;;;9.70;99.90;;;;;;5019593;28;20048;-61
2023/12/26 01:21:11;;;;;;;8.52;2.53;;;9.70;99.90;;;;;;5036715;28;20409;-61
2023/12/26 01:23:37;;;;;;;7.32;2.53;;;9.70;99.90;;;;;;5036073;28;20052;-61
2023/12/26 01:26:03;;;;;;;8.55;2.53;;;9.70;99.90;;;;;;5017239;28;20037;-61
2023/12/26 01:28:29;;;;;;;12.85;2.25;;;9.70;99.90;;;;;;5016613;28;20049;-61
2023/12/26 01:30:55;;;;;;;12.10;2.67;;;9.70;99.90;;;;;;5032899;28;20055;-61
2023/12/26 01:33:20;;;;;;;10.18;3.05;;;9.70;99.90;;;;;;5033468;28;20045;-62
2023/12/26 01:35:47;;;;;;;9.15;2.65;;;9.70;99.90;;;;;;5000003;28;20102;-61
2023/12/26 01:38:13;;;;;;;12.73;2.58;;;9.70;99.90;;;;;;4999931;28;20041;-62
2023/12/26 01:40:40;;;;;;;13.75;2.65;;;9.70;99.90;;;;;;5025638;28;20047;-61
2023/12/26 01:43:06;;;;;;;8.40;2.75;;;9.60;99.90;;;;;;5036000;28;20049;-61
2023/12/26 01:45:33;;;;;;;15.13;2.88;;;9.60;99.90;;;;;;5053756;28;20029;-61
2023/12/26 01:48:00;;;;;;;11.45;2.45;;;9.70;99.90;;;;;;5035829;28;20508;-61
2023/12/26 01:50:27;;;;;;;7.53;2.83;;;9.60;99.90;;;;;;5035815;28;20098;-62
2023/12/26 01:52:53;;;;;;;11.85;2.60;;;9.60;99.90;;;;;;5052638;28;20359;-62
2023/12/26 01:55:20;;;;;;;9.52;2.28;;;9.70;99.90;;;;;;5034466;28;20520;-62
2023/12/26 01:57:46;;;;;;;12.70;2.70;;;9.60;99.90;;;;;;5035890;28;20435;-62
2023/12/26 02:00:13;;;;;;;11.57;3.53;;;9.70;99.90;;;;;;5035724;28;20132;-62
2023/12/26 02:02:41;;;;;;;7.47;2.55;;;9.60;99.90;;;;;;5034950;28;20057;-62
2023/12/26 02:05:07;;;;;;;13.68;2.78;;;9.60;99.90;;;;;;5035646;28;20171;-62
2023/12/26 02:07:33;;;;;;;10.63;2.72;;;9.60;99.90;;;;;;5052919;28;20116;-62
2023/12/26 02:10:00;;;;;;;15.27;3.63;;;9.60;99.90;;;;;;5036038;28;20049;-62
2023/12/26 02:12:26;;;;;;;16.73;4.20;;;9.60;99.90;;;;;;5019002;28;20038;-62
2023/12/26 02:14:52;;;;;;;9.98;3.72;;;9.60;99.90;;;;;;5015315;28;20403;-61
2023/12/26 02:17:23;;;;;;;13.45;2.78;;;9.50;99.90;;;;;;5015676;28;20049;-62
2023/12/26 02:19:49;;;;;;;15.15;3.28;;;9.50;99.90;;;;;;5015756;28;20055;-61
2023/12/26 02:22:15;;;;;;;12.30;3.42;;;9.50;99.90;;;;;;5031445;28;20132;-61
2023/12/26 02:24:42;;;;;;;10.30;3.25;;;9.40;99.90;;;;;;4999110;28;20095;-61
2023/12/26 02:27:16;;;;;;;9.55;2.38;;;9.40;99.90;;;;;;5014912;28;20116;-61
2023/12/26 02:29:43;;;;;;;13.65;3.25;;;9.40;99.90;;;;;;5014901;28;20490;-61
2023/12/26 02:32:10;;;;;;;7.28;2.72;;;9.40;99.90;;;;;;5014988;28;20548;-61
2023/12/26 02:34:36;;;;;;;10.82;3.10;;;9.40;99.90;;;;;;5032933;28;20103;-61
2023/12/26 02:37:03;;;;;;;11.65;2.80;;;9.40;99.90;;;;;;4998588;28;20041;-62
2023/12/26 02:39:28;;;;;;;13.82;3.25;;;9.40;99.90;;;;;;5005484;28;20116;-62
2023/12/26 02:41:54;;;;;;;10.57;2.80;;;9.40;99.90;;;;;;5023747;28;20124;-61
2023/12/26 02:44:20;;;;;;;10.05;3.03;;;9.40;99.90;;;;;;5030950;28;20042;-61
2023/12/26 02:46:46;;;;;;;10.38;3.25;;;9.40;99.90;;;;;;5014826;28;20044;-62
2023/12/26 02:49:11;;;;;;;10.20;3.17;;;9.40;99.90;;;;;;5031235;28;20099;-61
2023/12/26 02:51:37;;;;;;;9.73;2.53;;;9.40;99.90;;;;;;5030612;28;20505;-62
2023/12/26 02:54:03;;;;;;;12.55;2.20;;;9.30;99.90;;;;;;5032509;28;20159;-61
2023/12/26 02:56:29;;;;;;;9.93;3.15;;;9.30;99.90;;;;;;5032752;28;20098;-61
2023/12/26 02:58:54;;;;;;;10.60;2.45;;;9.30;99.90;;;;;;5032085;28;20046;-63
2023/12/26 03:01:20;;;;;;;9.25;2.83;;;9.20;99.90;;;;;;5014008;28;20060;-61
2023/12/26 03:03:46;;;;;;;10.25;2.97;;;9.20;99.90;;;;;;4998296;28;20054;-61
2023/12/26 03:06:11;;;;;;;10.30;2.67;;;9.20;99.90;;;;;;4994745;28;20117;-61
2023/12/26 03:08:37;;;;;;;7.00;2.40;;;9.10;99.90;;;;;;4994839;28;20517;-61
2023/12/26 03:11:03;;;;;;;10.18;3.28;;;9.10;99.90;;;;;;5007634;28;20037;-61
2023/12/26 03:13:29;;;;;;;15.90;2.38;;;9.10;99.90;;;;;;5014482;28;20077;-61
2023/12/26 03:15:54;;;;;;;15.20;3.85;;;9.10;99.90;;;;;;5014542;28;20136;-61
2023/12/26 03:18:20;;;;;;;10.45;3.05;;;9.00;99.90;;;;;;4997683;28;20045;-61
2023/12/26 03:20:46;;;;;;;7.30;2.42;;;9.00;99.90;;;;;;5005195;28;20038;-61
2023/12/26 03:23:11;;;;;;;16.27;3.83;;;9.00;99.90;;;;;;4994937;28;20042;-61
2023/12/26 03:25:37;;;;;;;17.92;4.10;;;9.00;99.90;;;;;;5006328;28;20041;-61
2023/12/26 03:28:03;;;;;;;16.60;3.72;;;8.80;99.90;;;;;;5031682;28;20052;-61
2023/12/26 03:30:29;;;;;;;15.07;3.75;;;8.80;99.90;;;;;;5014034;28;20067;-61
2023/12/26 03:32:54;;;;;;;11.88;2.70;;;8.80;99.90;;;;;;4997450;28;20530;-61
2023/12/26 03:35:20;;;;;;;11.10;3.63;;;8.70;99.90;;;;;;5013927;28;20045;-62
2023/12/26 03:37:47;;;;;;;10.52;3.30;;;8.70;99.90;;;;;;5014468;28;20132;-62
2023/12/26 03:40:14;;;;;;;12.43;3.28;;;8.60;99.90;;;;;;5007045;28;20052;-62
2023/12/26 03:42:42;;;;;;;14.35;5.00;;;8.60;99.90;;;;;;5011922;28;20384;-62
2023/12/26 03:45:08;;;;;;;11.20;3.75;;;8.60;99.90;;;;;;4994774;28;20042;-62
2023/12/26 03:47:34;;;;;;;16.95;4.30;;;8.50;99.90;;;;;;5011517;28;20029;-62
2023/12/26 03:50:00;;;;;;;13.48;3.38;;;8.50;99.90;;;;;;4994707;28;20402;-62
2023/12/26 03:52:26;;;;;;;16.20;4.28;;;8.50;99.90;;;;;;5012429;28;20041;-62
2023/12/26 03:54:53;;;;;;;7.13;2.25;;;8.50;99.90;;;;;;4977674;28;20112;-62
2023/12/26 03:57:18;;;;;;;13.55;3.47;;;8.40;99.90;;;;;;4996028;28;20054;-62
2023/12/26 03:59:45;;;;;;;10.50;3.97;;;8.40;99.90;;;;;;5014025;28;20053;-61
2023/12/26 04:02:11;;;;;;;20.55;3.63;;;8.30;99.90;;;;;;5020452;28;20057;-61
2023/12/26 04:04:36;;;;;;;18.33;3.72;;;8.30;99.90;;;;;;5037887;28;20173;-61
2023/12/26 04:07:02;;;;;;;13.82;3.58;;;8.30;99.90;;;;;;5038545;28;20474;-61
2023/12/26 04:09:28;;;;;;;11.88;2.83;;;8.30;99.90;;;;;;5054972;28;20441;-61
2023/12/26 04:11:54;;;;;;;9.88;2.67;;;8.20;99.90;;;;;;5034128;28;20090;-61
2023/12/26 04:14:19;;;;;;;14.25;3.15;;;8.20;99.90;;;;;;5017616;28;20046;-62
2023/12/26 04:16:45;;;;;;;12.35;2.80;;;8.20;99.90;;;;;;5017768;28;20509;-62
2023/12/26 04:19:11;;;;;;;12.23;3.30;;;8.20;99.90;;;;;;5001283;28;20053;-62
2023/12/26 04:21:37;;;;;;;11.85;2.85;;;8.20;99.90;;;;;;5017188;28;20033;-62
2023/12/26 04:24:02;;;;;;;16.40;3.97;;;8.30;99.90;;;;;;5017897;28;20037;-62
2023/12/26 04:26:28;;;;;;;15.60;3.17;;;8.30;99.90;;;;;;5017569;28;20524;-62
2023/12/26 04:28:54;;;;;;;15.98;2.97;;;8.30;99.90;;;;;;5035221;28;20420;-62
2023/12/26 04:31:19;;;;;;;16.10;2.97;;;8.30;99.90;;;;;;5017485;28;20076;-62
2023/12/26 04:33:45;;;;;;;16.65;3.22;;;8.30;99.90;;;;;;5017591;28;20132;-62
2023/12/26 04:36:11;;;;;;;14.45;3.25;;;8.30;99.90;;;;;;5017037;28;20037;-62
2023/12/26 04:38:36;;;;;;;10.80;3.55;;;8.30;99.90;;;;;;5017141;28;20041;-62
2023/12/26 04:41:02;;;;;;;12.75;3.53;;;8.30;99.90;;;;;;5018179;28;20053;-62
2023/12/26 04:43:28;;;;;;;9.20;3.72;;;8.20;99.90;;;;;;5016708;28;20045;-62
2023/12/26 04:45:54;;;;;;;15.77;3.25;;;8.20;99.90;;;;;;5034698;28;20453;-62
2023/12/26 04:48:19;;;;;;;9.98;2.80;;;8.20;99.90;;;;;;5036940;28;20044;-62
2023/12/26 04:50:45;;;;;;;13.13;3.20;;;8.20;99.90;;;;;;5020286;28;20033;-62
2023/12/26 04:53:11;;;;;;;11.73;3.28;;;8.20;99.90;;;;;;5036830;28;20041;-62
2023/12/26 04:55:37;;;;;;;13.45;4.30;;;8.30;99.90;;;;;;5037044;28;20517;-62
2023/12/26 04:58:02;;;;;;;10.70;3.80;;;8.30;99.90;;;;;;5037096;28;20049;-62
2023/12/26 05:00:28;;;;;;;14.13;3.83;;;8.30;99.90;;;;;;5036966;28;20458;-62
2023/12/26 05:02:55;;;;;;;12.13;3.38;;;8.30;99.90;;;;;;5019559;28;20497;-62
2023/12/26 05:05:21;;;;;;;11.50;2.83;;;8.30;99.90;;;;;;5035044;28;20048;-62
2023/12/26 05:07:46;;;;;;;15.32;2.88;;;8.30;99.90;;;;;;5035228;28;20037;-62
2023/12/26 05:10:12;;;;;;;14.23;3.25;;;8.30;99.90;;;;;;5014955;28;20036;-62
2023/12/26 05:12:38;;;;;;;10.65;2.60;;;8.30;99.90;;;;;;5015020;28;20562;-62
2023/12/26 05:15:04;;;;;;;12.05;3.50;;;8.30;99.90;;;;;;5033490;28;20038;-62
2023/12/26 05:17:30;;;;;;;17.20;3.00;;;8.40;99.90;;;;;;5032618;28;20037;-62
2023/12/26 05:19:56;;;;;;;13.65;4.03;;;8.40;99.90;;;;;;5016040;28;20103;-62
2023/12/26 05:22:21;;;;;;;20.20;2.97;;;8.40;99.90;;;;;;5015169;28;20502;-62
2023/12/26 05:24:48;;;;;;;12.73;2.67;;;8.40;99.90;;;;;;5015094;28;20371;-61
2023/12/26 05:27:14;;;;;;;10.05;2.78;;;8.50;99.90;;;;;;5021525;28;20431;-62
2023/12/26 05:29:43;;;;;;;9.20;2.40;;;8.50;99.90;;;;;;5031674;28;20125;-62
2023/12/26 05:32:09;;;;;;;12.27;3.75;;;8.60;99.90;;;;;;5014862;28;20525;-62
2023/12/26 05:34:35;;;;;;;9.02;3.10;;;8.60;99.90;;;;;;4999155;28;20041;-62
2023/12/26 05:37:01;;;;;;;11.60;2.58;;;8.70;99.90;;;;;;5015813;28;20042;-62
2023/12/26 05:39:26;;;;;;;7.88;2.63;;;8.70;99.90;;;;;;5014792;28;20116;-62
2023/12/26 05:41:52;;;;;;;15.02;3.80;;;8.70;99.90;;;;;;5034466;28;20406;-62
2023/12/26 05:44:18;;;;;;;7.28;2.00;;;8.70;99.90;;;;;;5034984;28;20088;-61
2023/12/26 05:46:45;;;;;;;13.18;3.03;;;8.80;99.90;;;;;;5052113;28;20048;-62
2023/12/26 05:49:11;;;;;;;8.65;2.58;;;8.80;99.90;;;;;;5034557;28;20041;-61
2023/12/26 05:51:37;;;;;;;9.60;3.28;;;8.80;99.90;;;;;;5034942;28;20041;-61
2023/12/26 05:54:03;;;;;;;19.52;4.20;;;8.80;99.90;;;;;;5051295;28;20044;-62
2023/12/26 05:56:28;;;;;;;10.05;2.50;;;8.80;99.90;;;;;;5034581;28;20049;-61
2023/12/26 05:58:54;;;;;;;12.25;3.45;;;8.70;99.90;;;;;;5016377;28;20068;-62
2023/12/26 06:01:20;;;;;;;14.90;5.07;;;8.70;99.90;;;;;;5030694;28;20045;-62
2023/12/26 06:03:46;;;;;;;23.27;5.20;;;8.60;99.90;;;;;;4991257;28;1202838;-62
2023/12/26 06:06:12;;;;;;;12.40;3.72;;;8.60;99.90;;;;;;5015639;28;20051;-62
2023/12/26 06:08:40;;;;;;;11.40;3.22;;;8.50;99.90;;;;;;5015375;28;20041;-62
2023/12/26 06:11:05;;;;;;;14.88;3.03;;;8.50;99.90;;;;;;5025337;28;20036;-62
2023/12/26 06:13:31;;;;;;;14.27;3.55;;;8.50;99.90;;;;;;5052965;28;20130;-62
2023/12/26 06:15:57;;;;;;;11.32;2.97;;;8.50;99.90;;;;;;5051787;28;20055;-62
2023/12/26 06:18:23;;;;;;;12.43;3.47;;;8.40;99.90;;;;;;5042773;28;20067;-62
2023/12/26 06:20:48;;;;;;;13.20;2.97;;;8.40;99.90;;;;;;5034827;28;20076;-62
2023/12/26 06:23:14;;;;;;;14.48;3.00;;;8.40;99.90;;;;;;5052445;28;20082;-62
2023/12/26 06:25:40;;;;;;;9.60;2.88;;;8.40;99.90;;;;;;5035124;28;20471;-62
2023/12/26 06:28:06;;;;;;;18.00;4.13;;;8.30;99.90;;;;;;5034333;28;20056;-62
2023/12/26 06:30:31;;;;;;;18.77;4.20;;;8.30;99.90;;;;;;5030461;28;20037;-62
2023/12/26 06:32:57;;;;;;;12.85;4.20;;;8.30;99.90;;;;;;5015230;28;20046;-61
2023/12/26 06:35:23;;;;;;;14.23;4.53;;;8.20;99.90;;;;;;5014615;28;20084;-62
2023/12/26 06:37:49;;;;;;;18.05;4.45;;;8.30;99.90;;;;;;4998716;28;20082;-62
2023/12/26 06:40:15;;;;;;;15.63;4.00;;;8.30;99.90;;;;;;5016071;28;20041;-62
2023/12/26 06:42:41;;;;;;;13.13;4.43;;;8.40;99.90;;;;;;5032227;28;20041;-62
2023/12/26 06:45:07;;;;;;;11.95;4.40;;;8.40;99.90;;;;;;5015510;28;20068;-62
2023/12/26 06:47:33;;;;;;;17.10;4.35;;;8.40;99.90;;;;;;5032775;28;20496;-62
2023/12/26 06:49:59;;;;;;;14.68;4.07;;;8.40;99.90;;;;;;5021232;28;20037;-61
2023/12/26 06:52:24;;;;;;;13.15;4.55;;;8.40;99.90;;;;;;5034910;28;20485;-61
2023/12/26 06:54:50;;;;;;;12.77;4.78;;;8.40;99.90;;;;;;5034952;28;20033;-61
2023/12/26 06:57:16;;;;;;;17.73;4.07;;;8.40;99.90;;;;;;5047571;28;20048;-62
2023/12/26 06:59:47;;;;;;;14.20;3.78;;;8.40;99.90;;;;;;5034757;28;20076;-61
2023/12/26 07:02:16;;;;;;;12.10;3.70;;;8.40;99.90;;;;;;5050762;28;20057;-62
2023/12/26 07:04:44;;;;;;;18.00;4.03;;;8.50;99.90;;;;;;5034011;28;20056;-62
2023/12/26 07:07:11;;;;;;;8.02;2.90;;;8.50;99.90;;;;;;5029838;28;20115;-62
2023/12/26 07:09:38;;;;;;;13.27;4.47;;;8.50;99.90;;;;;;5019622;28;20069;-62
2023/12/26 07:12:04;;;;;;;16.48;5.38;;;8.50;99.90;;;;;;5014291;28;20049;-62
2023/12/26 07:14:30;;;;;;;14.13;4.35;;;8.60;99.90;;;;;;5014014;28;20052;-61
2023/12/26 07:16:57;;;;;;;17.88;7.45;;;8.50;99.90;;;;;;5014831;28;20045;-61
2023/12/26 07:19:23;;;;;;;17.50;6.30;;;8.60;99.90;;;;;;5015017;28;20163;-61
2023/12/26 07:21:49;;;;;;;14.82;5.97;;;8.50;99.90;;;;;;5032104;28;20945;-62
2023/12/26 07:24:14;;;;;;;10.27;4.28;;;8.50;99.90;;;;;;5014031;28;20052;-62
2023/12/26 07:26:40;;;;;;;11.15;3.70;;;8.50;99.90;;;;;;5014439;28;20507;-61
2023/12/26 07:29:06;;;;;;;13.00;4.13;;;8.50;99.90;;;;;;5014473;28;20091;-61
2023/12/26 07:31:32;;;;;;;15.38;5.22;;;8.40;99.90;;;;;;5020490;28;20044;-62
2023/12/26 07:34:00;;;;;;;15.18;3.95;;;8.40;99.90;;;;;;5033971;28;20052;-61
2023/12/26 07:36:26;;;;;;;14.23;4.07;;;8.40;99.90;;;;;;5034187;28;20382;-61
2023/12/26 07:38:51;;;;;;;14.68;4.47;;;8.40;99.90;;;;;;5033476;28;20047;-61
2023/12/26 07:41:17;;;;;;;12.82;3.70;;;8.40;99.90;;;;;;5050858;28;20041;-61
2023/12/26 07:43:44;;;;;;;11.07;4.18;;;8.40;99.90;;;;;;5015505;28;20040;-62
2023/12/26 07:46:10;;;;;;;16.63;4.50;;;8.30;99.90;;;;;;5033786;28;20044;-62
2023/12/26 07:48:35;;;;;;;12.20;3.30;;;8.30;99.90;;;;;;5033622;28;20052;-62
2023/12/26 07:51:01;;;;;;;12.63;3.50;;;8.30;99.90;;;;;;5034118;28;20045;-61
2023/12/26 07:53:27;;;;;;;21.13;4.30;;;8.30;99.90;;;;;;5033372;28;20056;-61
2023/12/26 07:55:53;;;;;;;16.27;3.20;;;8.30;99.90;;;;;;5033783;28;20119;-61
2023/12/26 07:58:19;;;;;;;17.80;4.15;;;8.30;99.90;;;;;;5034070;28;20455;-62
2023/12/26 08:00:44;;;;;;;18.42;3.80;;;8.30;99.90;;;;;;5033751;28;20502;-62
2023/12/26 08:03:15;;;;;;;11.43;2.90;;;8.30;99.90;;;;;;5045927;28;20453;-62
2023/12/26 08:05:42;;;;;;;13.75;3.08;;;8.30;99.90;;;;;;5014522;28;20046;-62
2023/12/26 08:08:10;;;;;;;11.02;2.75;;;8.30;99.90;;;;;;4997288;28;20049;-62
2023/12/26 08:10:35;;;;;;;15.80;3.90;;;8.40;99.90;;;;;;5013919;28;20099;-62
2023/12/26 08:13:01;;;;;;;11.10;3.50;;;8.30;99.90;;;;;;5016680;28;20041;-62
2023/12/26 08:15:27;;;;;;;17.65;4.35;;;8.40;99.90;;;;;;5029944;28;20399;-62
2023/12/26 08:17:52;;;;;;;13.05;3.25;;;8.40;99.90;;;;;;5030071;28;20037;-61
2023/12/26 08:20:18;;;;;;;14.35;3.20;;;8.40;99.90;;;;;;5030564;28;20045;-62
2023/12/26 08:22:44;;;;;;;18.13;3.90;;;8.40;99.90;;;;;;5013694;28;20556;-62
2023/12/26 08:25:10;;;;;;;14.98;3.60;;;8.40;99.90;;;;;;5031548;28;20041;-61
2023/12/26 08:27:36;;;;;;;14.20;3.00;;;8.40;99.90;;;;;;5013656;28;20041;-61
2023/12/26 08:30:03;;;;;;;8.85;3.00;;;8.40;99.90;;;;;;5032826;28;20436;-62
2023/12/26 08:32:28;;;;;;;12.27;2.47;;;8.40;99.90;;;;;;5032459;28;20041;-62
2023/12/26 08:34:54;;;;;;;17.50;2.65;;;8.40;99.90;;;;;;5025885;28;20044;-62
2023/12/26 08:37:20;;;;;;;16.13;3.17;;;8.50;99.90;;;;;;5029394;28;20048;-62
2023/12/26 08:39:46;;;;;;;11.18;3.10;;;8.50;99.90;;;;;;5031688;28;20041;-62
2023/12/26 08:42:11;;;;;;;13.38;2.83;;;8.50;99.90;;;;;;5046723;28;20037;-62
2023/12/26 08:44:37;;;;;;;9.95;2.75;;;8.50;99.90;;;;;;5027800;28;20034;-62
2023/12/26 08:47:03;;;;;;;10.60;2.60;;;8.60;99.90;;;;;;5034431;28;20055;-62
2023/12/26 08:49:29;;;;;;;10.85;2.72;;;8.60;99.90;;;;;;5031083;28;20463;-62
2023/12/26 08:51:55;;;;;;;14.43;3.20;;;8.60;99.90;;;;;;5027637;28;20119;-62
2023/12/26 08:54:20;;;;;;;12.27;3.28;;;8.60;99.90;;;;;;5053297;28;20037;-62
2023/12/26 08:56:46;;;;;;;12.57;3.38;;;8.60;99.90;;;;;;5053196;28;20048;-62
2023/12/26 08:59:12;;;;;;;7.95;2.28;;;8.60;99.90;;;;;;5036789;28;20048;-62
2023/12/26 09:01:38;;;;;;;10.77;2.47;;;8.60;99.90;;;;;;5039535;28;20037;-62
2023/12/26 09:04:04;;;;;;;11.77;3.00;;;8.60;99.90;;;;;;5029294;28;20070;-62
2023/12/26 09:06:30;;;;;;;18.23;3.00;;;8.50;99.90;;;;;;5036243;28;20045;-61
2023/12/26 09:08:56;;;;;;;10.38;2.80;;;8.60;99.90;;;;;;5037353;28;20367;-62
2023/12/26 09:11:21;;;;;;;8.82;3.00;;;8.60;99.90;;;;;;5049968;28;20486;-62
2023/12/26 09:13:47;;;;;;;16.60;3.70;;;8.50;99.90;;;;;;5017183;28;20098;-62
2023/12/26 09:16:13;;;;;;;12.43;4.00;;;8.60;99.90;;;;;;5051773;28;20401;-61
2023/12/26 09:18:39;;;;;;;14.25;3.00;;;8.60;99.90;;;;;;5017313;28;20076;-61
2023/12/26 09:21:05;;;;;;;12.38;3.45;;;8.60;99.90;;;;;;5013895;28;20572;-62
2023/12/26 09:23:31;;;;;;;15.73;3.17;;;8.60;99.90;;;;;;5013397;28;20072;-62
2023/12/26 09:25:57;;;;;;;11.75;3.63;;;8.70;99.90;;;;;;5014097;28;20115;-62
2023/12/26 09:28:23;;;;;;;14.90;3.33;;;8.70;99.90;;;;;;5030097;28;20095;-62
2023/12/26 09:30:49;;;;;;;13.18;3.08;;;8.70;99.90;;;;;;5014004;28;20054;-62
2023/12/26 09:33:14;;;;;;;12.35;3.00;;;8.70;99.90;;;;;;5028428;28;20219;-62
2023/12/26 09:35:40;;;;;;;13.10;3.95;;;8.70;99.90;;;;;;5046845;28;20490;-62
2023/12/26 09:38:06;;;;;;;12.73;4.18;;;8.70;99.90;;;;;;5032455;28;20115;-61
2023/12/26 09:40:32;;;;;;;15.77;4.75;;;8.80;99.90;;;;;;5049461;28;20052;-61
2023/12/26 09:43:02;;;;;;;17.40;5.15;;;8.80;99.90;;;;;;5050890;28;20037;-61
2023/12/26 09:45:28;;;;;;;10.43;3.40;;;8.80;99.90;;;;;;5032643;28;20508;-61
2023/12/26 09:47:55;;;;;;;18.35;2.90;;;8.80;99.90;;;;;;5031991;28;20402;-62
2023/12/26 09:50:21;;;;;;;12.43;3.92;;;8.80;99.90;;;;;;5022383;28;20049;-62
2023/12/26 09:52:57;;;;;;;18.23;4.85;;;8.80;99.90;;;;;;5023405;28;20135;-61
2023/12/26 09:55:23;;;;;;;16.98;3.78;;;8.90;99.90;;;;;;5038213;28;20044;-62
2023/12/26 09:57:49;;;;;;;15.82;3.33;;;8.90;99.90;;;;;;5031602;28;20056;-61
2023/12/26 10:00:15;;;;;;;12.70;4.38;;;8.80;99.90;;;;;;5032180;28;20170;-61
2023/12/26 10:02:44;;;;;;;12.32;3.08;;;8.80;99.90;;;;;;5015401;28;20394;-62
2023/12/26 10:05:10;;;;;;;13.70;6.00;;;8.80;99.90;;;;;;5017892;28;20044;-61
2023/12/26 10:07:36;;;;;;;10.25;4.60;;;8.80;99.90;;;;;;5020156;28;20072;-62
2023/12/26 10:10:02;;;;;;;11.68;2.47;;;8.70;99.90;;;;;;5024824;28;20048;-62
2023/12/26 10:12:34;;;;;;;17.60;4.30;;;8.80;99.90;;;;;;5025573;28;20044;-61
2023/12/26 10:15:02;;;;;;;18.73;3.78;;;8.80;99.90;;;;;;5024435;28;20049;-61
2023/12/26 10:17:28;;;;;;;14.52;3.70;;;8.80;99.90;;;;;;5013284;28;20049;-62
2023/12/26 10:19:58;;;;;;;15.30;3.45;;;8.80;99.90;;;;;;5029531;28;20041;-62
2023/12/26 10:22:25;;;;;;;14.98;4.05;;;8.90;99.90;;;;;;5027538;28;20077;-62
2023/12/26 10:24:51;;;;;;;16.75;2.92;;;8.90;99.90;;;;;;5032099;28;20045;-61
2023/12/26 10:27:16;;;;;;;25.67;4.63;;;8.90;99.90;;;;;;5015392;28;20041;-62
2023/12/26 10:29:56;;;;;;;19.95;4.70;;;8.90;99.90;;;;;;5048757;28;20201;-62
2023/12/26 10:32:26;;;;;;;23.40;4.45;;;9.00;99.90;;;;;;5032133;28;20041;-62
2023/12/26 10:34:53;;;;;;;17.77;4.65;;;9.00;99.90;;;;;;5049486;28;20040;-62
2023/12/26 10:37:22;;;;;;;14.02;3.47;;;9.00;99.90;;;;;;5014783;28;20136;-61
2023/12/26 10:39:48;;;;;;;15.95;3.60;;;9.00;99.90;;;;;;5024580;28;20127;-61
2023/12/26 10:42:18;;;;;;;17.67;3.80;;;9.00;99.90;;;;;;4999379;28;20048;-62
2023/12/26 10:45:07;;;;;;;15.38;3.47;;;9.00;99.90;;;;;;5013722;28;20048;-61
2023/12/26 10:47:34;;;;;;;17.35;4.50;;;9.00;99.90;;;;;;5027747;28;20032;-61
2023/12/26 10:50:01;;;;;;;14.07;3.80;;;9.00;99.90;;;;;;5030776;28;20398;-62
2023/12/26 10:52:28;;;;;;;13.52;4.50;;;9.00;99.90;;;;;;5032325;28;20059;-61
2023/12/26 10:55:00;;;;;;;21.33;6.55;;;9.10;99.90;;;;;;5027480;28;20041;-61
2023/12/26 10:57:29;;;;;;;25.77;4.75;;;9.10;99.90;;;;;;5026035;28;20048;-61
2023/12/26 13:51:41;;;;;;;11.57;2.65;;;8.20;99.90;;;;;;5034039;28;20045;-61
2023/12/26 13:54:07;;;;;;;9.70;2.13;;;8.10;99.90;;;;;;5025313;28;20560;-61
2023/12/26 13:56:33;;;;;;;10.77;3.50;;;8.10;99.90;;;;;;5033126;28;20557;-61
2023/12/26 13:58:58;;;;;;;8.63;2.75;;;8.00;99.90;;;;;;5032329;28;20117;-62
2023/12/26 14:01:25;;;;;;;10.30;2.22;;;8.00;99.90;;;;;;5032871;28;20783;-62
2023/12/26 14:03:51;;;;;;;9.80;2.90;;;7.90;99.90;;;;;;5032984;28;20132;-62
2023/12/26 14:06:21;;;;;;;14.73;3.20;;;7.90;99.90;;;;;;5032035;28;20070;-62
2023/12/26 14:08:49;;;;;;;5.78;1.60;;;7.90;99.90;;;;;;5032570;28;20052;-61
2023/12/26 14:11:16;;;;;;;11.75;1.90;;;7.90;99.90;;;;;;5020837;28;20106;-61
2023/12/26 14:13:42;;;;;;;10.85;2.10;;;7.90;99.90;;;;;;5014745;28;20045;-62
2023/12/26 14:16:08;;;;;;;6.80;1.42;;;7.90;99.90;;;;;;5029780;28;20047;-61
2023/12/26 14:18:33;;;;;;;10.82;2.80;;;7.80;99.90;;;;;;5019311;28;20041;-61
2023/12/26 14:21:00;;;;;;;11.30;4.03;;;7.80;99.90;;;;;;5047533;28;20478;-62
2023/12/26 14:23:28;;;;;;;7.65;2.38;;;7.80;99.90;;;;;;5032732;28;20717;-61
2023/12/26 14:25:54;;;;;;;5.95;2.33;;;7.80;99.90;;;;;;5017855;28;20091;-62
2023/12/26 14:28:20;;;;;;;12.18;2.90;;;7.90;99.90;;;;;;5012562;28;20056;-62
2023/12/26 14:30:45;;;;;;;6.13;2.25;;;7.90;99.90;;;;;;5014389;28;20375;-62
2023/12/26 14:33:19;;;;;;;5.18;1.60;;;7.90;99.90;;;;;;5046635;28;20036;-61
2023/12/26 14:35:49;;;;;;;8.10;1.35;;;7.80;99.90;;;;;;5002812;28;20083;-61
2023/12/26 14:38:15;;;;;;;12.15;1.95;;;7.80;99.90;;;;;;5013694;28;20049;-61
2023/12/26 14:40:42;;;;;;;7.65;1.98;;;7.70;99.90;;;;;;5030493;28;20037;-61
2023/12/26 14:43:08;;;;;;;6.57;1.80;;;7.70;99.90;;;;;;5015594;28;20132;-61
2023/12/26 14:45:33;;;;;;;4.05;1.35;;;7.70;99.90;;;;;;5012164;28;20124;-61
2023/12/26 14:47:59;;;;;;;5.43;1.52;;;7.60;99.90;;;;;;5031946;28;20037;-61
2023/12/26 14:50:25;;;;;;;6.15;1.77;;;7.60;99.90;;;;;;5030712;28;20114;-61
2023/12/26 14:52:51;;;;;;;14.50;2.70;;;7.60;99.90;;;;;;5032279;28;20458;-61
2023/12/26 14:55:17;;;;;;;5.85;2.08;;;7.60;99.90;;;;;;5048736;28;20037;-61
2023/12/26 14:57:43;;;;;;;6.18;1.63;;;7.60;99.90;;;;;;5031181;28;20084;-61
2023/12/26 15:00:08;;;;;;;3.03;1.00;;;7.50;99.90;;;;;;5012492;28;20080;-61
2023/12/26 15:02:35;;;;;;;5.38;1.30;;;7.50;99.90;;;;;;5012668;28;20145;-61
2023/12/26 15:05:02;;;;;;;6.30;0.95;;;7.40;99.90;;;;;;5012683;28;20053;-61
2023/12/26 15:07:27;;;;;;;5.85;0.93;;;7.30;99.90;;;;;;5014281;28;20044;-61
2023/12/26 15:09:53;;;;;;;8.68;1.55;;;7.30;99.90;;;;;;5031822;28;20401;-61
2023/12/26 15:12:19;;;;;;;6.07;1.00;;;7.20;99.90;;;;;;5024000;28;20048;-61
2023/12/26 15:14:45;;;;;;;9.30;2.28;;;7.10;99.90;;;;;;5027626;28;20045;-61
2023/12/26 15:17:15;;;;;;;7.70;1.63;;;7.10;99.90;;;;;;5031065;28;20061;-61
2023/12/26 15:19:41;;;;;;;8.63;1.83;;;7.00;99.90;;;;;;5032230;28;20037;-61
2023/12/26 15:22:06;;;;;;;9.25;1.75;;;6.90;99.90;;;;;;5029825;28;20044;-61
2023/12/26 15:24:32;;;;;;;9.55;2.00;;;6.80;99.90;;;;;;5009453;28;20044;-61
2023/12/26 15:26:58;;;;;;;11.77;2.38;;;6.80;99.90;;;;;;5024715;28;20041;-61
2023/12/26 15:29:23;;;;;;;7.75;1.75;;;6.80;99.90;;;;;;5028601;28;20045;-61
2023/12/26 15:31:49;;;;;;;11.13;2.80;;;6.70;99.90;;;;;;5047333;28;20201;-62
2023/12/26 15:34:15;;;;;;;9.80;2.38;;;6.80;99.90;;;;;;5025410;28;20750;-61
2023/12/26 15:36:41;;;;;;;13.38;2.15;;;6.70;99.90;;;;;;5027628;28;20850;-61